sensor_id;sensor_type;location;lat;lon;timestamp;P1;durP1;ratioP1;P2;durP2;ratioP2
62673;SDS011;62269;47.594;17.638;2023-06-01T00:00:21;13.00;;;8.93;;
62673;SDS011;62269;47.594;17.638;2023-06-01T00:01:17;10.25;;;8.57;;
62673;SDS011;62269;47.594;17.638;2023-06-01T00:02:17;11.30;;;8.27;;
62673;SDS011;62269;47.594;17.638;2023-06-01T00:03:15;9.80;;;8.20;;
62673;SDS011;62269;47.594;17.638;2023-06-01T00:04:12;10.05;;;8.57;;
62673;SDS011;62269;47.594;17.638;2023-06-01T00:05:09;10.63;;;7.45;;
62673;SDS011;62269;47.594;17.638;2023-06-01T00:06:06;11.05;;;8.20;;
62673;SDS011;62269;47.594;17.638;2023-06-01T00:07:04;10.02;;;8.40;;
62673;SDS011;62269;47.594;17.638;2023-06-01T00:08:02;11.25;;;8.48;;
62673;SDS011;62269;47.594;17.638;2023-06-01T00:09:01;12.00;;;8.90;;
62673;SDS011;62269;47.594;17.638;2023-06-01T00:09:59;10.32;;;8.55;;
62673;SDS011;62269;47.594;17.638;2023-06-01T00:10:56;11.02;;;8.57;;
62673;SDS011;62269;47.594;17.638;2023-06-01T00:11:53;13.93;;;8.60;;
62673;SDS011;62269;47.594;17.638;2023-06-01T00:12:50;10.65;;;7.90;;
62673;SDS011;62269;47.594;17.638;2023-06-01T00:13:48;10.75;;;7.85;;
62673;SDS011;62269;47.594;17.638;2023-06-01T00:14:45;12.10;;;8.57;;
62673;SDS011;62269;47.594;17.638;2023-06-01T00:15:42;12.27;;;8.02;;
62673;SDS011;62269;47.594;17.638;2023-06-01T00:16:40;12.85;;;8.90;;
62673;SDS011;62269;47.594;17.638;2023-06-01T00:17:37;10.00;;;8.10;;
62673;SDS011;62269;47.594;17.638;2023-06-01T00:18:34;11.95;;;8.60;;
62673;SDS011;62269;47.594;17.638;2023-06-01T00:19:31;11.75;;;8.85;;
62673;SDS011;62269;47.594;17.638;2023-06-01T00:20:28;9.40;;;7.90;;
62673;SDS011;62269;47.594;17.638;2023-06-01T00:21:26;10.60;;;9.25;;
62673;SDS011;62269;47.594;17.638;2023-06-01T00:22:24;9.20;;;7.95;;
62673;SDS011;62269;47.594;17.638;2023-06-01T00:23:21;10.75;;;8.25;;
62673;SDS011;62269;47.594;17.638;2023-06-01T00:24:18;9.45;;;7.82;;
62673;SDS011;62269;47.594;17.638;2023-06-01T00:25:15;9.32;;;7.62;;
62673;SDS011;62269;47.594;17.638;2023-06-01T00:26:12;10.45;;;8.25;;
62673;SDS011;62269;47.594;17.638;2023-06-01T00:27:09;14.27;;;8.73;;
62673;SDS011;62269;47.594;17.638;2023-06-01T00:28:06;14.93;;;8.43;;
62673;SDS011;62269;47.594;17.638;2023-06-01T00:29:03;10.50;;;8.18;;
62673;SDS011;62269;47.594;17.638;2023-06-01T00:29:59;12.50;;;8.25;;
62673;SDS011;62269;47.594;17.638;2023-06-01T00:30:56;9.93;;;7.95;;
62673;SDS011;62269;47.594;17.638;2023-06-01T00:31:53;11.52;;;8.15;;
62673;SDS011;62269;47.594;17.638;2023-06-01T00:32:50;11.45;;;7.85;;
62673;SDS011;62269;47.594;17.638;2023-06-01T00:33:47;13.48;;;7.75;;
62673;SDS011;62269;47.594;17.638;2023-06-01T00:34:44;10.93;;;7.80;;
62673;SDS011;62269;47.594;17.638;2023-06-01T00:35:41;8.48;;;7.60;;
62673;SDS011;62269;47.594;17.638;2023-06-01T00:36:38;9.55;;;8.18;;
62673;SDS011;62269;47.594;17.638;2023-06-01T00:37:35;10.05;;;7.50;;
62673;SDS011;62269;47.594;17.638;2023-06-01T00:38:32;8.77;;;7.80;;
62673;SDS011;62269;47.594;17.638;2023-06-01T00:39:29;10.55;;;7.40;;
62673;SDS011;62269;47.594;17.638;2023-06-01T00:40:26;9.40;;;7.40;;
62673;SDS011;62269;47.594;17.638;2023-06-01T00:41:23;12.70;;;7.68;;
62673;SDS011;62269;47.594;17.638;2023-06-01T00:42:20;9.38;;;7.00;;
62673;SDS011;62269;47.594;17.638;2023-06-01T00:43:17;8.65;;;7.35;;
62673;SDS011;62269;47.594;17.638;2023-06-01T00:44:15;10.13;;;8.10;;
62673;SDS011;62269;47.594;17.638;2023-06-01T00:45:12;10.68;;;7.60;;
62673;SDS011;62269;47.594;17.638;2023-06-01T00:46:09;8.90;;;7.37;;
62673;SDS011;62269;47.594;17.638;2023-06-01T00:47:06;10.70;;;7.82;;
62673;SDS011;62269;47.594;17.638;2023-06-01T00:48:04;9.13;;;7.60;;
62673;SDS011;62269;47.594;17.638;2023-06-01T00:49:01;10.05;;;7.10;;
62673;SDS011;62269;47.594;17.638;2023-06-01T00:49:58;9.70;;;7.55;;
62673;SDS011;62269;47.594;17.638;2023-06-01T00:50:55;8.93;;;6.85;;
62673;SDS011;62269;47.594;17.638;2023-06-01T00:51:54;9.18;;;7.35;;
62673;SDS011;62269;47.594;17.638;2023-06-01T00:52:51;8.23;;;7.18;;
62673;SDS011;62269;47.594;17.638;2023-06-01T00:53:49;9.98;;;7.43;;
62673;SDS011;62269;47.594;17.638;2023-06-01T00:54:46;9.82;;;7.78;;
62673;SDS011;62269;47.594;17.638;2023-06-01T00:55:43;10.88;;;7.68;;
62673;SDS011;62269;47.594;17.638;2023-06-01T00:56:40;9.68;;;7.18;;
62673;SDS011;62269;47.594;17.638;2023-06-01T00:57:40;8.10;;;7.18;;
62673;SDS011;62269;47.594;17.638;2023-06-01T00:58:39;12.43;;;7.37;;
62673;SDS011;62269;47.594;17.638;2023-06-01T00:59:37;9.07;;;7.37;;
62673;SDS011;62269;47.594;17.638;2023-06-01T01:00:34;9.50;;;6.85;;
62673;SDS011;62269;47.594;17.638;2023-06-01T01:01:31;10.77;;;7.50;;
62673;SDS011;62269;47.594;17.638;2023-06-01T01:02:28;9.90;;;6.78;;
62673;SDS011;62269;47.594;17.638;2023-06-01T01:03:28;10.65;;;7.15;;
62673;SDS011;62269;47.594;17.638;2023-06-01T01:04:28;10.02;;;6.87;;
62673;SDS011;62269;47.594;17.638;2023-06-01T01:05:25;11.35;;;7.55;;
62673;SDS011;62269;47.594;17.638;2023-06-01T01:11:21;10.68;;;6.80;;
62673;SDS011;62269;47.594;17.638;2023-06-01T01:12:28;10.43;;;7.20;;
62673;SDS011;62269;47.594;17.638;2023-06-01T01:14:52;9.98;;;7.35;;
62673;SDS011;62269;47.594;17.638;2023-06-01T01:16:03;10.70;;;7.80;;
62673;SDS011;62269;47.594;17.638;2023-06-01T01:17:15;9.20;;;7.07;;
62673;SDS011;62269;47.594;17.638;2023-06-01T01:18:17;8.07;;;7.10;;
62673;SDS011;62269;47.594;17.638;2023-06-01T01:20:51;9.40;;;7.25;;
62673;SDS011;62269;47.594;17.638;2023-06-01T01:23:51;9.60;;;6.87;;
62673;SDS011;62269;47.594;17.638;2023-06-01T01:29:43;11.43;;;7.18;;
62673;SDS011;62269;47.594;17.638;2023-06-01T01:30:41;12.30;;;7.28;;
62673;SDS011;62269;47.594;17.638;2023-06-01T01:31:39;15.27;;;7.28;;
62673;SDS011;62269;47.594;17.638;2023-06-01T01:32:37;9.15;;;7.30;;
62673;SDS011;62269;47.594;17.638;2023-06-01T01:33:34;11.38;;;7.20;;
62673;SDS011;62269;47.594;17.638;2023-06-01T01:34:32;9.10;;;7.15;;
62673;SDS011;62269;47.594;17.638;2023-06-01T01:35:29;7.40;;;6.70;;
62673;SDS011;62269;47.594;17.638;2023-06-01T01:36:26;10.38;;;7.10;;
62673;SDS011;62269;47.594;17.638;2023-06-01T01:37:23;9.07;;;7.00;;
62673;SDS011;62269;47.594;17.638;2023-06-01T01:38:20;7.95;;;6.53;;
62673;SDS011;62269;47.594;17.638;2023-06-01T01:39:17;8.55;;;7.05;;
62673;SDS011;62269;47.594;17.638;2023-06-01T01:40:14;8.75;;;7.07;;
62673;SDS011;62269;47.594;17.638;2023-06-01T01:41:11;9.35;;;7.20;;
62673;SDS011;62269;47.594;17.638;2023-06-01T01:42:07;10.68;;;7.68;;
62673;SDS011;62269;47.594;17.638;2023-06-01T01:43:05;9.75;;;6.82;;
62673;SDS011;62269;47.594;17.638;2023-06-01T01:44:02;10.75;;;7.45;;
62673;SDS011;62269;47.594;17.638;2023-06-01T01:45:00;9.35;;;6.93;;
62673;SDS011;62269;47.594;17.638;2023-06-01T01:47:25;7.90;;;6.47;;
62673;SDS011;62269;47.594;17.638;2023-06-01T01:48:32;9.13;;;6.70;;
62673;SDS011;62269;47.594;17.638;2023-06-01T01:49:34;7.72;;;6.80;;
62673;SDS011;62269;47.594;17.638;2023-06-01T01:50:37;9.30;;;7.60;;
62673;SDS011;62269;47.594;17.638;2023-06-01T01:51:37;6.05;;;5.45;;
62673;SDS011;62269;47.594;17.638;2023-06-01T01:52:43;9.25;;;7.45;;
62673;SDS011;62269;47.594;17.638;2023-06-01T01:53:42;11.40;;;7.15;;
62673;SDS011;62269;47.594;17.638;2023-06-01T01:54:42;11.98;;;7.45;;
62673;SDS011;62269;47.594;17.638;2023-06-01T01:55:40;10.93;;;7.60;;
62673;SDS011;62269;47.594;17.638;2023-06-01T01:56:38;9.13;;;6.68;;
62673;SDS011;62269;47.594;17.638;2023-06-01T01:57:35;8.95;;;6.93;;
62673;SDS011;62269;47.594;17.638;2023-06-01T01:58:32;8.77;;;7.10;;
62673;SDS011;62269;47.594;17.638;2023-06-01T01:59:30;9.52;;;6.78;;
62673;SDS011;62269;47.594;17.638;2023-06-01T02:00:27;9.52;;;7.03;;
62673;SDS011;62269;47.594;17.638;2023-06-01T02:01:24;9.00;;;7.00;;
62673;SDS011;62269;47.594;17.638;2023-06-01T02:02:21;9.02;;;7.10;;
62673;SDS011;62269;47.594;17.638;2023-06-01T02:03:18;13.52;;;8.10;;
62673;SDS011;62269;47.594;17.638;2023-06-01T02:04:16;9.70;;;6.97;;
62673;SDS011;62269;47.594;17.638;2023-06-01T02:05:13;13.32;;;8.18;;
62673;SDS011;62269;47.594;17.638;2023-06-01T02:06:10;9.23;;;7.15;;
62673;SDS011;62269;47.594;17.638;2023-06-01T02:07:07;9.85;;;7.28;;
62673;SDS011;62269;47.594;17.638;2023-06-01T02:08:04;10.18;;;7.32;;
62673;SDS011;62269;47.594;17.638;2023-06-01T02:09:03;9.95;;;7.28;;
62673;SDS011;62269;47.594;17.638;2023-06-01T02:10:03;8.98;;;6.93;;
62673;SDS011;62269;47.594;17.638;2023-06-01T02:11:01;8.85;;;7.00;;
62673;SDS011;62269;47.594;17.638;2023-06-01T02:11:58;10.10;;;7.97;;
62673;SDS011;62269;47.594;17.638;2023-06-01T02:12:55;12.57;;;7.78;;
62673;SDS011;62269;47.594;17.638;2023-06-01T02:13:52;10.07;;;7.47;;
62673;SDS011;62269;47.594;17.638;2023-06-01T02:14:49;12.20;;;7.45;;
62673;SDS011;62269;47.594;17.638;2023-06-01T02:15:46;9.88;;;7.05;;
62673;SDS011;62269;47.594;17.638;2023-06-01T02:16:43;10.13;;;7.10;;
62673;SDS011;62269;47.594;17.638;2023-06-01T02:17:41;11.12;;;7.00;;
62673;SDS011;62269;47.594;17.638;2023-06-01T02:18:45;9.85;;;7.07;;
62673;SDS011;62269;47.594;17.638;2023-06-01T02:19:42;9.10;;;7.32;;
62673;SDS011;62269;47.594;17.638;2023-06-01T02:20:40;11.00;;;7.75;;
62673;SDS011;62269;47.594;17.638;2023-06-01T02:21:37;9.57;;;7.00;;
62673;SDS011;62269;47.594;17.638;2023-06-01T02:22:34;8.57;;;7.68;;
62673;SDS011;62269;47.594;17.638;2023-06-01T02:23:31;10.40;;;7.47;;
62673;SDS011;62269;47.594;17.638;2023-06-01T02:24:28;9.57;;;7.95;;
62673;SDS011;62269;47.594;17.638;2023-06-01T02:25:25;9.77;;;6.95;;
62673;SDS011;62269;47.594;17.638;2023-06-01T02:26:22;9.77;;;7.62;;
62673;SDS011;62269;47.594;17.638;2023-06-01T02:27:19;8.63;;;7.10;;
62673;SDS011;62269;47.594;17.638;2023-06-01T02:28:16;11.48;;;7.28;;
62673;SDS011;62269;47.594;17.638;2023-06-01T02:29:13;9.80;;;7.47;;
62673;SDS011;62269;47.594;17.638;2023-06-01T02:30:10;8.65;;;7.18;;
62673;SDS011;62269;47.594;17.638;2023-06-01T02:31:07;12.32;;;7.25;;
62673;SDS011;62269;47.594;17.638;2023-06-01T02:32:04;11.60;;;7.55;;
62673;SDS011;62269;47.594;17.638;2023-06-01T02:33:02;10.68;;;7.37;;
62673;SDS011;62269;47.594;17.638;2023-06-01T02:33:59;8.93;;;6.65;;
62673;SDS011;62269;47.594;17.638;2023-06-01T02:34:56;10.77;;;7.18;;
62673;SDS011;62269;47.594;17.638;2023-06-01T02:35:53;9.18;;;7.62;;
62673;SDS011;62269;47.594;17.638;2023-06-01T02:36:50;9.80;;;7.60;;
62673;SDS011;62269;47.594;17.638;2023-06-01T02:37:47;11.30;;;7.87;;
62673;SDS011;62269;47.594;17.638;2023-06-01T02:38:44;10.40;;;7.57;;
62673;SDS011;62269;47.594;17.638;2023-06-01T02:39:41;8.98;;;7.15;;
62673;SDS011;62269;47.594;17.638;2023-06-01T02:40:38;9.35;;;7.28;;
62673;SDS011;62269;47.594;17.638;2023-06-01T02:41:35;10.98;;;7.47;;
62673;SDS011;62269;47.594;17.638;2023-06-01T02:42:32;9.05;;;6.75;;
62673;SDS011;62269;47.594;17.638;2023-06-01T02:43:29;9.43;;;7.12;;
62673;SDS011;62269;47.594;17.638;2023-06-01T02:44:26;12.73;;;8.30;;
62673;SDS011;62269;47.594;17.638;2023-06-01T02:45:22;12.40;;;7.40;;
62673;SDS011;62269;47.594;17.638;2023-06-01T02:46:19;10.18;;;7.47;;
62673;SDS011;62269;47.594;17.638;2023-06-01T02:47:17;12.10;;;7.72;;
62673;SDS011;62269;47.594;17.638;2023-06-01T02:48:13;10.77;;;7.65;;
62673;SDS011;62269;47.594;17.638;2023-06-01T02:49:11;12.45;;;7.28;;
62673;SDS011;62269;47.594;17.638;2023-06-01T02:50:08;11.45;;;8.02;;
62673;SDS011;62269;47.594;17.638;2023-06-01T02:51:05;14.57;;;8.02;;
62673;SDS011;62269;47.594;17.638;2023-06-01T02:52:02;11.93;;;7.22;;
62673;SDS011;62269;47.594;17.638;2023-06-01T02:52:59;12.25;;;7.60;;
62673;SDS011;62269;47.594;17.638;2023-06-01T02:53:56;10.10;;;6.97;;
62673;SDS011;62269;47.594;17.638;2023-06-01T02:54:53;13.68;;;8.57;;
62673;SDS011;62269;47.594;17.638;2023-06-01T02:55:50;9.32;;;7.40;;
62673;SDS011;62269;47.594;17.638;2023-06-01T02:56:48;12.02;;;7.65;;
62673;SDS011;62269;47.594;17.638;2023-06-01T02:57:45;12.30;;;7.18;;
62673;SDS011;62269;47.594;17.638;2023-06-01T02:58:42;10.68;;;7.30;;
62673;SDS011;62269;47.594;17.638;2023-06-01T02:59:39;11.10;;;7.72;;
62673;SDS011;62269;47.594;17.638;2023-06-01T03:00:36;11.10;;;7.28;;
62673;SDS011;62269;47.594;17.638;2023-06-01T03:01:33;9.90;;;7.60;;
62673;SDS011;62269;47.594;17.638;2023-06-01T03:02:32;9.15;;;6.75;;
62673;SDS011;62269;47.594;17.638;2023-06-01T03:03:29;9.00;;;7.22;;
62673;SDS011;62269;47.594;17.638;2023-06-01T03:04:29;9.35;;;7.55;;
62673;SDS011;62269;47.594;17.638;2023-06-01T03:05:29;9.43;;;7.50;;
62673;SDS011;62269;47.594;17.638;2023-06-01T03:06:26;11.35;;;7.75;;
62673;SDS011;62269;47.594;17.638;2023-06-01T03:07:28;8.93;;;7.47;;
62673;SDS011;62269;47.594;17.638;2023-06-01T03:08:25;11.32;;;7.57;;
62673;SDS011;62269;47.594;17.638;2023-06-01T03:09:22;9.23;;;7.32;;
62673;SDS011;62269;47.594;17.638;2023-06-01T03:10:19;12.13;;;7.95;;
62673;SDS011;62269;47.594;17.638;2023-06-01T03:11:16;10.55;;;7.47;;
62673;SDS011;62269;47.594;17.638;2023-06-01T03:12:13;8.07;;;7.00;;
62673;SDS011;62269;47.594;17.638;2023-06-01T03:13:10;9.30;;;7.82;;
62673;SDS011;62269;47.594;17.638;2023-06-01T03:14:07;9.70;;;7.20;;
62673;SDS011;62269;47.594;17.638;2023-06-01T03:15:04;10.05;;;7.47;;
62673;SDS011;62269;47.594;17.638;2023-06-01T03:16:02;9.82;;;6.72;;
62673;SDS011;62269;47.594;17.638;2023-06-01T03:16:59;9.48;;;7.30;;
62673;SDS011;62269;47.594;17.638;2023-06-01T03:17:56;11.50;;;7.43;;
62673;SDS011;62269;47.594;17.638;2023-06-01T03:18:53;13.62;;;8.00;;
62673;SDS011;62269;47.594;17.638;2023-06-01T03:19:51;10.45;;;7.30;;
62673;SDS011;62269;47.594;17.638;2023-06-01T03:20:48;9.88;;;7.45;;
62673;SDS011;62269;47.594;17.638;2023-06-01T03:21:45;11.90;;;8.13;;
62673;SDS011;62269;47.594;17.638;2023-06-01T03:22:43;9.75;;;7.68;;
62673;SDS011;62269;47.594;17.638;2023-06-01T03:23:40;9.85;;;7.75;;
62673;SDS011;62269;47.594;17.638;2023-06-01T03:24:40;10.23;;;7.60;;
62673;SDS011;62269;47.594;17.638;2023-06-01T03:25:37;9.95;;;7.47;;
62673;SDS011;62269;47.594;17.638;2023-06-01T03:26:35;11.70;;;7.20;;
62673;SDS011;62269;47.594;17.638;2023-06-01T03:27:32;10.52;;;7.47;;
62673;SDS011;62269;47.594;17.638;2023-06-01T03:28:29;10.27;;;7.35;;
62673;SDS011;62269;47.594;17.638;2023-06-01T03:29:26;10.00;;;7.72;;
62673;SDS011;62269;47.594;17.638;2023-06-01T03:30:23;9.18;;;7.37;;
62673;SDS011;62269;47.594;17.638;2023-06-01T03:31:20;8.13;;;7.05;;
62673;SDS011;62269;47.594;17.638;2023-06-01T03:32:18;10.30;;;7.22;;
62673;SDS011;62269;47.594;17.638;2023-06-01T03:33:15;11.02;;;7.07;;
62673;SDS011;62269;47.594;17.638;2023-06-01T03:34:12;10.65;;;7.25;;
62673;SDS011;62269;47.594;17.638;2023-06-01T03:35:09;9.90;;;7.25;;
62673;SDS011;62269;47.594;17.638;2023-06-01T03:36:11;8.90;;;7.20;;
62673;SDS011;62269;47.594;17.638;2023-06-01T03:37:10;8.05;;;6.65;;
62673;SDS011;62269;47.594;17.638;2023-06-01T03:38:07;10.18;;;7.43;;
62673;SDS011;62269;47.594;17.638;2023-06-01T03:39:04;10.77;;;7.45;;
62673;SDS011;62269;47.594;17.638;2023-06-01T03:40:05;9.05;;;7.30;;
62673;SDS011;62269;47.594;17.638;2023-06-01T03:41:06;11.15;;;6.43;;
62673;SDS011;62269;47.594;17.638;2023-06-01T03:42:03;9.15;;;7.50;;
62673;SDS011;62269;47.594;17.638;2023-06-01T03:43:01;9.77;;;7.25;;
62673;SDS011;62269;47.594;17.638;2023-06-01T03:43:59;10.77;;;6.75;;
62673;SDS011;62269;47.594;17.638;2023-06-01T03:44:56;10.85;;;7.53;;
62673;SDS011;62269;47.594;17.638;2023-06-01T03:45:53;11.57;;;7.90;;
62673;SDS011;62269;47.594;17.638;2023-06-01T03:46:50;12.05;;;7.53;;
62673;SDS011;62269;47.594;17.638;2023-06-01T03:47:48;9.73;;;7.37;;
62673;SDS011;62269;47.594;17.638;2023-06-01T03:48:45;11.50;;;7.15;;
62673;SDS011;62269;47.594;17.638;2023-06-01T03:49:41;9.43;;;7.80;;
62673;SDS011;62269;47.594;17.638;2023-06-01T03:50:39;11.55;;;8.52;;
62673;SDS011;62269;47.594;17.638;2023-06-01T03:51:36;10.23;;;7.70;;
62673;SDS011;62269;47.594;17.638;2023-06-01T03:52:33;13.60;;;7.35;;
62673;SDS011;62269;47.594;17.638;2023-06-01T03:53:30;10.68;;;8.05;;
62673;SDS011;62269;47.594;17.638;2023-06-01T03:54:27;10.25;;;7.78;;
62673;SDS011;62269;47.594;17.638;2023-06-01T03:55:24;12.48;;;7.97;;
62673;SDS011;62269;47.594;17.638;2023-06-01T03:56:23;11.48;;;8.32;;
62673;SDS011;62269;47.594;17.638;2023-06-01T03:57:20;10.60;;;7.30;;
62673;SDS011;62269;47.594;17.638;2023-06-01T03:58:17;11.00;;;7.07;;
62673;SDS011;62269;47.594;17.638;2023-06-01T03:59:16;11.05;;;7.30;;
62673;SDS011;62269;47.594;17.638;2023-06-01T04:00:12;11.48;;;7.05;;
62673;SDS011;62269;47.594;17.638;2023-06-01T04:01:16;12.15;;;7.12;;
62673;SDS011;62269;47.594;17.638;2023-06-01T04:02:13;11.65;;;7.65;;
62673;SDS011;62269;47.594;17.638;2023-06-01T04:03:10;9.48;;;6.70;;
62673;SDS011;62269;47.594;17.638;2023-06-01T04:04:07;9.63;;;6.80;;
62673;SDS011;62269;47.594;17.638;2023-06-01T04:05:06;11.18;;;6.50;;
62673;SDS011;62269;47.594;17.638;2023-06-01T04:06:10;10.20;;;6.62;;
62673;SDS011;62269;47.594;17.638;2023-06-01T04:07:13;10.45;;;6.60;;
62673;SDS011;62269;47.594;17.638;2023-06-01T04:08:18;9.15;;;6.82;;
62673;SDS011;62269;47.594;17.638;2023-06-01T04:09:16;8.63;;;7.60;;
62673;SDS011;62269;47.594;17.638;2023-06-01T04:10:17;11.20;;;6.97;;
62673;SDS011;62269;47.594;17.638;2023-06-01T04:11:14;12.15;;;6.65;;
62673;SDS011;62269;47.594;17.638;2023-06-01T04:12:14;9.18;;;6.70;;
62673;SDS011;62269;47.594;17.638;2023-06-01T04:13:12;12.20;;;7.32;;
62673;SDS011;62269;47.594;17.638;2023-06-01T04:14:08;9.52;;;6.45;;
62673;SDS011;62269;47.594;17.638;2023-06-01T04:15:05;9.57;;;7.07;;
62673;SDS011;62269;47.594;17.638;2023-06-01T04:16:03;11.60;;;7.22;;
62673;SDS011;62269;47.594;17.638;2023-06-01T04:17:01;10.40;;;7.18;;
62673;SDS011;62269;47.594;17.638;2023-06-01T04:17:58;10.40;;;7.35;;
62673;SDS011;62269;47.594;17.638;2023-06-01T04:18:55;12.57;;;6.97;;
62673;SDS011;62269;47.594;17.638;2023-06-01T04:19:52;9.57;;;6.95;;
62673;SDS011;62269;47.594;17.638;2023-06-01T04:20:50;8.10;;;6.65;;
62673;SDS011;62269;47.594;17.638;2023-06-01T04:21:47;9.25;;;6.55;;
62673;SDS011;62269;47.594;17.638;2023-06-01T04:22:45;11.02;;;7.18;;
62673;SDS011;62269;47.594;17.638;2023-06-01T04:23:42;11.80;;;6.82;;
62673;SDS011;62269;47.594;17.638;2023-06-01T04:24:39;8.90;;;6.82;;
62673;SDS011;62269;47.594;17.638;2023-06-01T04:25:36;9.40;;;6.20;;
62673;SDS011;62269;47.594;17.638;2023-06-01T04:26:34;8.05;;;6.80;;
62673;SDS011;62269;47.594;17.638;2023-06-01T04:27:33;10.52;;;6.35;;
62673;SDS011;62269;47.594;17.638;2023-06-01T04:28:33;8.75;;;6.70;;
62673;SDS011;62269;47.594;17.638;2023-06-01T04:29:31;7.82;;;7.03;;
62673;SDS011;62269;47.594;17.638;2023-06-01T04:30:29;9.82;;;6.70;;
62673;SDS011;62269;47.594;17.638;2023-06-01T04:31:26;10.70;;;7.18;;
62673;SDS011;62269;47.594;17.638;2023-06-01T04:32:23;11.20;;;6.72;;
62673;SDS011;62269;47.594;17.638;2023-06-01T04:33:21;10.15;;;6.60;;
62673;SDS011;62269;47.594;17.638;2023-06-01T04:34:21;11.95;;;6.53;;
62673;SDS011;62269;47.594;17.638;2023-06-01T04:35:19;10.38;;;6.40;;
62673;SDS011;62269;47.594;17.638;2023-06-01T04:36:16;9.40;;;7.07;;
62673;SDS011;62269;47.594;17.638;2023-06-01T04:37:16;9.65;;;7.20;;
62673;SDS011;62269;47.594;17.638;2023-06-01T04:38:16;9.63;;;6.62;;
62673;SDS011;62269;47.594;17.638;2023-06-01T04:39:16;10.15;;;6.78;;
62673;SDS011;62269;47.594;17.638;2023-06-01T04:40:13;9.52;;;6.20;;
62673;SDS011;62269;47.594;17.638;2023-06-01T04:41:10;9.88;;;6.47;;
62673;SDS011;62269;47.594;17.638;2023-06-01T04:42:09;10.02;;;6.35;;
62673;SDS011;62269;47.594;17.638;2023-06-01T04:43:10;10.55;;;6.40;;
62673;SDS011;62269;47.594;17.638;2023-06-01T04:44:07;11.02;;;6.50;;
62673;SDS011;62269;47.594;17.638;2023-06-01T04:45:06;9.90;;;6.40;;
62673;SDS011;62269;47.594;17.638;2023-06-01T04:46:04;8.10;;;6.25;;
62673;SDS011;62269;47.594;17.638;2023-06-01T04:47:01;9.20;;;6.10;;
62673;SDS011;62269;47.594;17.638;2023-06-01T04:48:00;9.65;;;6.55;;
62673;SDS011;62269;47.594;17.638;2023-06-01T04:48:57;8.57;;;6.15;;
62673;SDS011;62269;47.594;17.638;2023-06-01T04:49:56;13.20;;;7.03;;
62673;SDS011;62269;47.594;17.638;2023-06-01T04:50:54;9.95;;;6.07;;
62673;SDS011;62269;47.594;17.638;2023-06-01T04:51:51;10.57;;;6.72;;
62673;SDS011;62269;47.594;17.638;2023-06-01T04:52:48;8.07;;;5.78;;
62673;SDS011;62269;47.594;17.638;2023-06-01T04:53:46;7.22;;;5.68;;
62673;SDS011;62269;47.594;17.638;2023-06-01T04:54:45;12.45;;;6.37;;
62673;SDS011;62269;47.594;17.638;2023-06-01T04:55:42;13.20;;;7.15;;
62673;SDS011;62269;47.594;17.638;2023-06-01T04:56:40;9.85;;;6.47;;
62673;SDS011;62269;47.594;17.638;2023-06-01T04:57:37;9.45;;;6.40;;
62673;SDS011;62269;47.594;17.638;2023-06-01T04:58:40;8.82;;;5.90;;
62673;SDS011;62269;47.594;17.638;2023-06-01T04:59:37;8.60;;;6.65;;
62673;SDS011;62269;47.594;17.638;2023-06-01T05:00:33;9.00;;;6.37;;
62673;SDS011;62269;47.594;17.638;2023-06-01T05:01:30;12.27;;;6.60;;
62673;SDS011;62269;47.594;17.638;2023-06-01T05:02:27;10.43;;;6.55;;
62673;SDS011;62269;47.594;17.638;2023-06-01T05:03:24;9.05;;;5.90;;
62673;SDS011;62269;47.594;17.638;2023-06-01T05:04:21;8.80;;;5.82;;
62673;SDS011;62269;47.594;17.638;2023-06-01T05:05:18;12.02;;;5.93;;
62673;SDS011;62269;47.594;17.638;2023-06-01T05:06:15;12.77;;;6.30;;
62673;SDS011;62269;47.594;17.638;2023-06-01T05:07:12;9.98;;;6.85;;
62673;SDS011;62269;47.594;17.638;2023-06-01T05:08:09;15.18;;;6.57;;
62673;SDS011;62269;47.594;17.638;2023-06-01T05:09:06;10.85;;;6.12;;
62673;SDS011;62269;47.594;17.638;2023-06-01T05:10:04;11.45;;;6.12;;
62673;SDS011;62269;47.594;17.638;2023-06-01T05:11:02;10.55;;;6.70;;
62673;SDS011;62269;47.594;17.638;2023-06-01T05:11:59;12.63;;;6.30;;
62673;SDS011;62269;47.594;17.638;2023-06-01T05:12:56;9.10;;;6.28;;
62673;SDS011;62269;47.594;17.638;2023-06-01T05:13:54;9.13;;;6.22;;
62673;SDS011;62269;47.594;17.638;2023-06-01T05:14:58;14.75;;;7.12;;
62673;SDS011;62269;47.594;17.638;2023-06-01T05:15:56;23.35;;;6.95;;
62673;SDS011;62269;47.594;17.638;2023-06-01T05:16:53;13.50;;;7.60;;
62673;SDS011;62269;47.594;17.638;2023-06-01T05:17:49;14.15;;;6.65;;
62673;SDS011;62269;47.594;17.638;2023-06-01T05:18:47;11.10;;;6.70;;
62673;SDS011;62269;47.594;17.638;2023-06-01T05:19:45;10.40;;;6.78;;
62673;SDS011;62269;47.594;17.638;2023-06-01T05:20:42;9.40;;;6.80;;
62673;SDS011;62269;47.594;17.638;2023-06-01T05:21:39;9.85;;;6.85;;
62673;SDS011;62269;47.594;17.638;2023-06-01T05:22:36;14.87;;;6.65;;
62673;SDS011;62269;47.594;17.638;2023-06-01T05:23:34;8.85;;;6.78;;
62673;SDS011;62269;47.594;17.638;2023-06-01T05:24:30;9.25;;;7.00;;
62673;SDS011;62269;47.594;17.638;2023-06-01T05:25:28;11.95;;;7.87;;
62673;SDS011;62269;47.594;17.638;2023-06-01T05:26:25;10.32;;;7.30;;
62673;SDS011;62269;47.594;17.638;2023-06-01T05:27:23;10.98;;;7.97;;
62673;SDS011;62269;47.594;17.638;2023-06-01T05:28:20;11.38;;;7.78;;
62673;SDS011;62269;47.594;17.638;2023-06-01T05:29:17;14.95;;;8.57;;
62673;SDS011;62269;47.594;17.638;2023-06-01T05:30:14;14.32;;;8.70;;
62673;SDS011;62269;47.594;17.638;2023-06-01T05:31:11;18.12;;;8.98;;
62673;SDS011;62269;47.594;17.638;2023-06-01T05:32:09;12.70;;;8.45;;
62673;SDS011;62269;47.594;17.638;2023-06-01T05:33:06;13.02;;;8.60;;
62673;SDS011;62269;47.594;17.638;2023-06-01T05:34:03;11.95;;;8.55;;
62673;SDS011;62269;47.594;17.638;2023-06-01T05:35:00;11.88;;;8.45;;
62673;SDS011;62269;47.594;17.638;2023-06-01T05:35:57;15.35;;;8.20;;
62673;SDS011;62269;47.594;17.638;2023-06-01T05:36:54;10.55;;;8.23;;
62673;SDS011;62269;47.594;17.638;2023-06-01T05:37:50;12.27;;;8.43;;
62673;SDS011;62269;47.594;17.638;2023-06-01T05:38:47;12.65;;;8.50;;
62673;SDS011;62269;47.594;17.638;2023-06-01T05:39:44;16.20;;;8.75;;
62673;SDS011;62269;47.594;17.638;2023-06-01T05:40:41;13.70;;;8.38;;
62673;SDS011;62269;47.594;17.638;2023-06-01T05:41:38;12.37;;;8.05;;
62673;SDS011;62269;47.594;17.638;2023-06-01T05:42:35;11.02;;;7.93;;
62673;SDS011;62269;47.594;17.638;2023-06-01T05:43:36;11.90;;;8.23;;
62673;SDS011;62269;47.594;17.638;2023-06-01T05:44:33;12.70;;;7.78;;
62673;SDS011;62269;47.594;17.638;2023-06-01T05:45:30;15.95;;;8.32;;
62673;SDS011;62269;47.594;17.638;2023-06-01T05:46:27;11.60;;;7.90;;
62673;SDS011;62269;47.594;17.638;2023-06-01T05:47:24;13.25;;;8.02;;
62673;SDS011;62269;47.594;17.638;2023-06-01T05:48:21;14.75;;;7.50;;
62673;SDS011;62269;47.594;17.638;2023-06-01T05:49:18;11.23;;;7.70;;
62673;SDS011;62269;47.594;17.638;2023-06-01T05:50:15;10.68;;;7.72;;
62673;SDS011;62269;47.594;17.638;2023-06-01T05:51:12;10.75;;;6.85;;
62673;SDS011;62269;47.594;17.638;2023-06-01T05:52:09;12.75;;;7.85;;
62673;SDS011;62269;47.594;17.638;2023-06-01T05:53:07;12.10;;;7.40;;
62673;SDS011;62269;47.594;17.638;2023-06-01T05:54:07;11.63;;;8.05;;
62673;SDS011;62269;47.594;17.638;2023-06-01T05:55:04;12.25;;;7.28;;
62673;SDS011;62269;47.594;17.638;2023-06-01T05:56:01;11.43;;;7.35;;